sensor_id;sensor_type;location;lat;lon;timestamp;P1;durP1;ratioP1;P2;durP2;ratioP2
28343;SDS011;15597;50.914;6.638;2023-05-07T00:01:44;6.60;;;2.28;;
28343;SDS011;15597;50.914;6.638;2023-05-07T00:04:10;4.43;;;2.35;;
28343;SDS011;15597;50.914;6.638;2023-05-07T00:06:36;4.32;;;1.95;;
28343;SDS011;15597;50.914;6.638;2023-05-07T00:09:01;6.22;;;2.72;;
28343;SDS011;15597;50.914;6.638;2023-05-07T00:11:27;5.38;;;2.17;;
28343;SDS011;15597;50.914;6.638;2023-05-07T00:13:53;4.20;;;2.10;;
28343;SDS011;15597;50.914;6.638;2023-05-07T00:16:19;6.07;;;3.17;;
28343;SDS011;15597;50.914;6.638;2023-05-07T00:18:45;6.38;;;2.63;;
28343;SDS011;15597;50.914;6.638;2023-05-07T00:21:11;5.82;;;2.60;;
28343;SDS011;15597;50.914;6.638;2023-05-07T00:23:36;4.07;;;2.50;;
28343;SDS011;15597;50.914;6.638;2023-05-07T00:26:02;5.18;;;3.13;;
28343;SDS011;15597;50.914;6.638;2023-05-07T00:28:29;5.30;;;2.72;;
28343;SDS011;15597;50.914;6.638;2023-05-07T00:30:54;5.60;;;3.10;;
28343;SDS011;15597;50.914;6.638;2023-05-07T00:33:20;5.72;;;3.20;;
28343;SDS011;15597;50.914;6.638;2023-05-07T00:35:47;4.88;;;2.50;;
28343;SDS011;15597;50.914;6.638;2023-05-07T00:38:13;5.80;;;2.72;;
28343;SDS011;15597;50.914;6.638;2023-05-07T00:40:39;5.55;;;2.88;;
28343;SDS011;15597;50.914;6.638;2023-05-07T00:43:06;7.30;;;3.20;;
28343;SDS011;15597;50.914;6.638;2023-05-07T00:45:32;7.75;;;3.47;;
28343;SDS011;15597;50.914;6.638;2023-05-07T00:48:00;5.93;;;3.00;;
28343;SDS011;15597;50.914;6.638;2023-05-07T00:50:27;8.25;;;3.80;;
28343;SDS011;15597;50.914;6.638;2023-05-07T00:52:53;6.47;;;3.70;;
28343;SDS011;15597;50.914;6.638;2023-05-07T00:55:20;7.47;;;3.78;;
28343;SDS011;15597;50.914;6.638;2023-05-07T00:57:46;6.90;;;3.45;;
28343;SDS011;15597;50.914;6.638;2023-05-07T01:00:12;4.15;;;2.25;;
28343;SDS011;15597;50.914;6.638;2023-05-07T01:02:38;7.10;;;3.90;;
28343;SDS011;15597;50.914;6.638;2023-05-07T01:05:05;6.88;;;3.90;;
28343;SDS011;15597;50.914;6.638;2023-05-07T01:07:33;7.22;;;4.28;;
28343;SDS011;15597;50.914;6.638;2023-05-07T01:10:00;8.48;;;4.40;;
28343;SDS011;15597;50.914;6.638;2023-05-07T01:12:26;7.70;;;4.25;;
28343;SDS011;15597;50.914;6.638;2023-05-07T01:14:53;6.32;;;3.40;;
28343;SDS011;15597;50.914;6.638;2023-05-07T01:17:19;7.93;;;3.95;;
28343;SDS011;15597;50.914;6.638;2023-05-07T01:19:46;6.45;;;3.60;;
28343;SDS011;15597;50.914;6.638;2023-05-07T01:22:13;12.43;;;6.78;;
28343;SDS011;15597;50.914;6.638;2023-05-07T01:24:47;7.78;;;4.53;;
28343;SDS011;15597;50.914;6.638;2023-05-07T01:27:14;9.25;;;5.10;;
28343;SDS011;15597;50.914;6.638;2023-05-07T01:29:40;8.43;;;5.32;;
28343;SDS011;15597;50.914;6.638;2023-05-07T01:32:06;8.85;;;5.10;;
28343;SDS011;15597;50.914;6.638;2023-05-07T01:34:32;9.20;;;4.93;;
28343;SDS011;15597;50.914;6.638;2023-05-07T01:37:01;6.47;;;3.55;;
28343;SDS011;15597;50.914;6.638;2023-05-07T01:39:28;9.82;;;5.15;;
28343;SDS011;15597;50.914;6.638;2023-05-07T01:41:55;8.20;;;4.82;;
28343;SDS011;15597;50.914;6.638;2023-05-07T01:44:22;9.95;;;5.60;;
28343;SDS011;15597;50.914;6.638;2023-05-07T01:46:49;9.52;;;5.82;;
28343;SDS011;15597;50.914;6.638;2023-05-07T01:49:15;8.70;;;4.85;;
28343;SDS011;15597;50.914;6.638;2023-05-07T01:51:42;10.13;;;5.65;;
28343;SDS011;15597;50.914;6.638;2023-05-07T01:54:08;11.73;;;6.75;;
28343;SDS011;15597;50.914;6.638;2023-05-07T01:56:35;18.88;;;10.60;;
28343;SDS011;15597;50.914;6.638;2023-05-07T01:59:01;14.00;;;8.45;;
28343;SDS011;15597;50.914;6.638;2023-05-07T02:01:27;12.60;;;7.22;;
28343;SDS011;15597;50.914;6.638;2023-05-07T02:03:53;12.02;;;6.63;;
28343;SDS011;15597;50.914;6.638;2023-05-07T02:06:23;11.68;;;6.93;;
28343;SDS011;15597;50.914;6.638;2023-05-07T02:08:50;10.38;;;5.97;;
28343;SDS011;15597;50.914;6.638;2023-05-07T02:11:16;13.05;;;6.75;;
28343;SDS011;15597;50.914;6.638;2023-05-07T02:13:42;13.50;;;7.03;;
28343;SDS011;15597;50.914;6.638;2023-05-07T02:16:08;14.48;;;8.88;;
28343;SDS011;15597;50.914;6.638;2023-05-07T02:18:34;15.13;;;9.32;;
28343;SDS011;15597;50.914;6.638;2023-05-07T02:21:00;14.52;;;7.65;;
28343;SDS011;15597;50.914;6.638;2023-05-07T02:23:26;14.13;;;7.35;;
28343;SDS011;15597;50.914;6.638;2023-05-07T02:25:51;11.02;;;6.53;;
28343;SDS011;15597;50.914;6.638;2023-05-07T02:28:17;10.20;;;5.75;;
28343;SDS011;15597;50.914;6.638;2023-05-07T02:31:03;16.58;;;10.50;;
28343;SDS011;15597;50.914;6.638;2023-05-07T02:33:29;13.77;;;7.70;;
28343;SDS011;15597;50.914;6.638;2023-05-07T02:35:56;15.82;;;9.48;;
28343;SDS011;15597;50.914;6.638;2023-05-07T02:38:22;16.08;;;9.38;;
28343;SDS011;15597;50.914;6.638;2023-05-07T02:40:48;12.90;;;7.10;;
28343;SDS011;15597;50.914;6.638;2023-05-07T02:43:13;12.25;;;7.38;;
28343;SDS011;15597;50.914;6.638;2023-05-07T02:45:43;13.15;;;7.50;;
28343;SDS011;15597;50.914;6.638;2023-05-07T02:48:09;11.38;;;7.18;;
28343;SDS011;15597;50.914;6.638;2023-05-07T02:50:34;11.77;;;6.82;;
28343;SDS011;15597;50.914;6.638;2023-05-07T02:53:00;14.35;;;7.78;;
28343;SDS011;15597;50.914;6.638;2023-05-07T02:55:26;11.15;;;6.60;;
28343;SDS011;15597;50.914;6.638;2023-05-07T02:57:52;11.18;;;6.65;;
28343;SDS011;15597;50.914;6.638;2023-05-07T03:00:18;12.70;;;7.15;;
28343;SDS011;15597;50.914;6.638;2023-05-07T03:02:55;12.23;;;7.10;;
28343;SDS011;15597;50.914;6.638;2023-05-07T03:05:21;12.18;;;6.88;;
28343;SDS011;15597;50.914;6.638;2023-05-07T03:07:46;12.05;;;7.13;;
28343;SDS011;15597;50.914;6.638;2023-05-07T03:10:13;13.13;;;7.70;;
28343;SDS011;15597;50.914;6.638;2023-05-07T03:12:39;11.82;;;7.03;;
28343;SDS011;15597;50.914;6.638;2023-05-07T03:15:04;12.38;;;6.78;;
28343;SDS011;15597;50.914;6.638;2023-05-07T03:17:30;13.60;;;6.95;;
28343;SDS011;15597;50.914;6.638;2023-05-07T03:19:56;11.60;;;7.00;;
28343;SDS011;15597;50.914;6.638;2023-05-07T03:22:21;13.77;;;6.88;;
28343;SDS011;15597;50.914;6.638;2023-05-07T03:27:15;15.55;;;7.32;;
28343;SDS011;15597;50.914;6.638;2023-05-07T03:29:41;10.45;;;6.18;;
28343;SDS011;15597;50.914;6.638;2023-05-07T03:32:07;13.95;;;7.50;;
28343;SDS011;15597;50.914;6.638;2023-05-07T03:34:33;16.10;;;8.48;;
28343;SDS011;15597;50.914;6.638;2023-05-07T03:36:58;11.40;;;6.47;;
28343;SDS011;15597;50.914;6.638;2023-05-07T03:39:24;14.13;;;7.10;;
28343;SDS011;15597;50.914;6.638;2023-05-07T03:41:50;14.35;;;7.40;;
28343;SDS011;15597;50.914;6.638;2023-05-07T03:44:16;12.73;;;7.47;;
28343;SDS011;15597;50.914;6.638;2023-05-07T03:46:41;12.75;;;6.63;;
28343;SDS011;15597;50.914;6.638;2023-05-07T03:49:09;11.77;;;6.72;;
28343;SDS011;15597;50.914;6.638;2023-05-07T03:51:35;12.77;;;6.43;;
28343;SDS011;15597;50.914;6.638;2023-05-07T03:54:03;12.88;;;6.80;;
28343;SDS011;15597;50.914;6.638;2023-05-07T03:56:30;11.35;;;6.50;;
28343;SDS011;15597;50.914;6.638;2023-05-07T03:58:57;12.10;;;6.60;;
28343;SDS011;15597;50.914;6.638;2023-05-07T04:01:23;11.88;;;6.25;;
28343;SDS011;15597;50.914;6.638;2023-05-07T04:03:50;12.40;;;6.35;;
28343;SDS011;15597;50.914;6.638;2023-05-07T04:06:16;11.05;;;6.13;;
28343;SDS011;15597;50.914;6.638;2023-05-07T04:08:47;10.05;;;5.53;;
28343;SDS011;15597;50.914;6.638;2023-05-07T04:11:13;10.82;;;6.05;;
28343;SDS011;15597;50.914;6.638;2023-05-07T04:13:38;10.43;;;6.30;;
28343;SDS011;15597;50.914;6.638;2023-05-07T04:16:06;10.50;;;6.03;;
28343;SDS011;15597;50.914;6.638;2023-05-07T04:18:34;10.13;;;5.47;;
28343;SDS011;15597;50.914;6.638;2023-05-07T04:21:00;9.95;;;5.57;;
28343;SDS011;15597;50.914;6.638;2023-05-07T04:23:25;9.68;;;5.85;;
28343;SDS011;15597;50.914;6.638;2023-05-07T04:25:52;8.88;;;5.32;;
28343;SDS011;15597;50.914;6.638;2023-05-07T04:28:30;9.25;;;5.47;;
28343;SDS011;15597;50.914;6.638;2023-05-07T04:30:57;10.02;;;5.68;;
28343;SDS011;15597;50.914;6.638;2023-05-07T04:33:23;8.68;;;5.43;;
28343;SDS011;15597;50.914;6.638;2023-05-07T04:35:49;10.05;;;5.60;;
28343;SDS011;15597;50.914;6.638;2023-05-07T04:38:15;9.88;;;5.05;;
28343;SDS011;15597;50.914;6.638;2023-05-07T04:40:41;11.68;;;5.60;;
28343;SDS011;15597;50.914;6.638;2023-05-07T04:43:10;12.30;;;5.55;;
28343;SDS011;15597;50.914;6.638;2023-05-07T04:45:42;9.50;;;4.90;;
28343;SDS011;15597;50.914;6.638;2023-05-07T04:48:09;9.60;;;5.50;;
28343;SDS011;15597;50.914;6.638;2023-05-07T04:50:36;10.48;;;5.47;;
28343;SDS011;15597;50.914;6.638;2023-05-07T04:53:03;9.55;;;5.22;;
28343;SDS011;15597;50.914;6.638;2023-05-07T04:55:29;9.18;;;5.03;;
28343;SDS011;15597;50.914;6.638;2023-05-07T04:57:55;9.77;;;5.25;;
28343;SDS011;15597;50.914;6.638;2023-05-07T05:00:21;8.88;;;5.53;;
28343;SDS011;15597;50.914;6.638;2023-05-07T05:02:49;9.93;;;5.40;;
28343;SDS011;15597;50.914;6.638;2023-05-07T05:05:18;10.07;;;5.78;;
28343;SDS011;15597;50.914;6.638;2023-05-07T05:07:45;9.00;;;5.03;;
28343;SDS011;15597;50.914;6.638;2023-05-07T05:10:11;9.38;;;5.45;;
28343;SDS011;15597;50.914;6.638;2023-05-07T05:12:39;10.00;;;4.90;;
28343;SDS011;15597;50.914;6.638;2023-05-07T05:15:05;8.82;;;5.32;;
28343;SDS011;15597;50.914;6.638;2023-05-07T05:17:31;9.48;;;4.97;;
28343;SDS011;15597;50.914;6.638;2023-05-07T05:19:59;8.52;;;4.88;;
28343;SDS011;15597;50.914;6.638;2023-05-07T05:22:25;8.95;;;5.47;;
28343;SDS011;15597;50.914;6.638;2023-05-07T05:24:51;8.20;;;4.75;;
28343;SDS011;15597;50.914;6.638;2023-05-07T05:27:17;9.38;;;4.95;;
28343;SDS011;15597;50.914;6.638;2023-05-07T05:29:43;9.80;;;5.18;;
28343;SDS011;15597;50.914;6.638;2023-05-07T05:32:08;8.13;;;4.80;;
28343;SDS011;15597;50.914;6.638;2023-05-07T05:34:35;8.25;;;4.90;;
28343;SDS011;15597;50.914;6.638;2023-05-07T05:37:01;9.52;;;4.95;;
28343;SDS011;15597;50.914;6.638;2023-05-07T05:39:27;7.93;;;4.75;;
28343;SDS011;15597;50.914;6.638;2023-05-07T05:41:53;9.07;;;4.63;;
28343;SDS011;15597;50.914;6.638;2023-05-07T05:44:20;10.27;;;4.95;;
28343;SDS011;15597;50.914;6.638;2023-05-07T05:46:46;10.02;;;4.88;;
28343;SDS011;15597;50.914;6.638;2023-05-07T05:49:12;8.63;;;4.78;;
28343;SDS011;15597;50.914;6.638;2023-05-07T05:51:39;9.02;;;4.95;;
28343;SDS011;15597;50.914;6.638;2023-05-07T05:54:05;7.53;;;4.72;;
28343;SDS011;15597;50.914;6.638;2023-05-07T05:56:31;8.02;;;4.60;;
28343;SDS011;15597;50.914;6.638;2023-05-07T05:58:57;8.27;;;4.78;;
28343;SDS011;15597;50.914;6.638;2023-05-07T06:01:23;8.98;;;4.53;;
28343;SDS011;15597;50.914;6.638;2023-05-07T06:03:50;8.05;;;4.93;;
28343;SDS011;15597;50.914;6.638;2023-05-07T06:06:16;7.63;;;4.40;;
28343;SDS011;15597;50.914;6.638;2023-05-07T06:08:43;8.82;;;4.22;;
28343;SDS011;15597;50.914;6.638;2023-05-07T06:11:11;6.85;;;4.10;;
28343;SDS011;15597;50.914;6.638;2023-05-07T06:13:39;9.30;;;4.57;;
28343;SDS011;15597;50.914;6.638;2023-05-07T06:16:05;7.57;;;4.22;;
28343;SDS011;15597;50.914;6.638;2023-05-07T06:18:32;7.43;;;4.20;;
28343;SDS011;15597;50.914;6.638;2023-05-07T06:20:57;6.95;;;4.22;;
28343;SDS011;15597;50.914;6.638;2023-05-07T06:23:27;7.35;;;4.00;;
28343;SDS011;15597;50.914;6.638;2023-05-07T06:25:53;6.88;;;4.13;;
28343;SDS011;15597;50.914;6.638;2023-05-07T06:28:25;7.75;;;4.40;;
28343;SDS011;15597;50.914;6.638;2023-05-07T06:30:51;7.15;;;3.83;;
28343;SDS011;15597;50.914;6.638;2023-05-07T06:33:17;7.75;;;4.30;;
28343;SDS011;15597;50.914;6.638;2023-05-07T06:35:43;8.45;;;4.30;;
28343;SDS011;15597;50.914;6.638;2023-05-07T06:38:09;8.63;;;3.85;;
28343;SDS011;15597;50.914;6.638;2023-05-07T06:40:35;6.18;;;3.70;;
28343;SDS011;15597;50.914;6.638;2023-05-07T06:43:02;7.55;;;3.90;;
28343;SDS011;15597;50.914;6.638;2023-05-07T06:45:35;7.18;;;4.15;;
28343;SDS011;15597;50.914;6.638;2023-05-07T06:48:01;7.55;;;3.97;;
28343;SDS011;15597;50.914;6.638;2023-05-07T06:50:30;7.10;;;3.90;;
28343;SDS011;15597;50.914;6.638;2023-05-07T06:52:57;7.75;;;3.90;;
28343;SDS011;15597;50.914;6.638;2023-05-07T06:55:23;7.00;;;4.32;;
28343;SDS011;15597;50.914;6.638;2023-05-07T06:57:50;7.13;;;4.00;;
28343;SDS011;15597;50.914;6.638;2023-05-07T07:00:17;6.53;;;3.75;;
28343;SDS011;15597;50.914;6.638;2023-05-07T07:02:51;7.25;;;3.70;;
28343;SDS011;15597;50.914;6.638;2023-05-07T07:05:20;7.40;;;3.65;;
28343;SDS011;15597;50.914;6.638;2023-05-07T07:07:46;7.25;;;3.72;;
28343;SDS011;15597;50.914;6.638;2023-05-07T07:10:21;8.57;;;3.88;;
28343;SDS011;15597;50.914;6.638;2023-05-07T07:12:48;10.60;;;4.15;;
28343;SDS011;15597;50.914;6.638;2023-05-07T07:15:14;6.72;;;3.55;;
28343;SDS011;15597;50.914;6.638;2023-05-07T07:17:40;6.57;;;3.78;;
28343;SDS011;15597;50.914;6.638;2023-05-07T07:20:06;6.22;;;3.65;;
28343;SDS011;15597;50.914;6.638;2023-05-07T07:22:32;7.90;;;4.00;;
28343;SDS011;15597;50.914;6.638;2023-05-07T07:25:02;7.90;;;3.97;;
28343;SDS011;15597;50.914;6.638;2023-05-07T07:27:28;7.18;;;3.88;;
28343;SDS011;15597;50.914;6.638;2023-05-07T07:29:54;6.68;;;3.67;;
28343;SDS011;15597;50.914;6.638;2023-05-07T07:32:19;7.50;;;3.70;;
28343;SDS011;15597;50.914;6.638;2023-05-07T07:34:45;6.97;;;3.63;;
28343;SDS011;15597;50.914;6.638;2023-05-07T07:37:12;6.70;;;3.70;;
28343;SDS011;15597;50.914;6.638;2023-05-07T07:39:37;6.88;;;3.63;;
28343;SDS011;15597;50.914;6.638;2023-05-07T07:42:04;7.40;;;3.50;;
28343;SDS011;15597;50.914;6.638;2023-05-07T07:44:30;6.93;;;3.58;;
28343;SDS011;15597;50.914;6.638;2023-05-07T07:46:59;7.38;;;3.60;;
28343;SDS011;15597;50.914;6.638;2023-05-07T07:49:26;6.82;;;3.65;;
28343;SDS011;15597;50.914;6.638;2023-05-07T07:51:53;6.35;;;3.28;;
28343;SDS011;15597;50.914;6.638;2023-05-07T07:54:19;8.55;;;3.70;;
28343;SDS011;15597;50.914;6.638;2023-05-07T07:56:45;6.07;;;3.30;;
28343;SDS011;15597;50.914;6.638;2023-05-07T07:59:12;6.50;;;3.17;;
28343;SDS011;15597;50.914;6.638;2023-05-07T08:01:40;6.03;;;2.60;;
28343;SDS011;15597;50.914;6.638;2023-05-07T08:04:06;5.95;;;2.97;;
28343;SDS011;15597;50.914;6.638;2023-05-07T08:06:36;8.20;;;3.30;;
28343;SDS011;15597;50.914;6.638;2023-05-07T08:09:02;7.07;;;3.00;;
28343;SDS011;15597;50.914;6.638;2023-05-07T08:11:28;6.15;;;2.70;;
28343;SDS011;15597;50.914;6.638;2023-05-07T08:13:54;5.25;;;2.70;;
28343;SDS011;15597;50.914;6.638;2023-05-07T08:16:21;5.25;;;2.42;;
28343;SDS011;15597;50.914;6.638;2023-05-07T08:18:47;6.53;;;2.40;;
28343;SDS011;15597;50.914;6.638;2023-05-07T08:21:13;6.05;;;3.10;;
28343;SDS011;15597;50.914;6.638;2023-05-07T08:23:38;5.57;;;2.50;;
28343;SDS011;15597;50.914;6.638;2023-05-07T08:26:04;6.10;;;2.63;;
28343;SDS011;15597;50.914;6.638;2023-05-07T08:28:30;5.68;;;2.50;;
28343;SDS011;15597;50.914;6.638;2023-05-07T08:30:55;7.20;;;2.83;;
28343;SDS011;15597;50.914;6.638;2023-05-07T08:33:27;5.00;;;2.38;;
28343;SDS011;15597;50.914;6.638;2023-05-07T08:35:53;8.40;;;2.63;;
28343;SDS011;15597;50.914;6.638;2023-05-07T08:38:18;4.35;;;2.03;;
28343;SDS011;15597;50.914;6.638;2023-05-07T08:40:44;5.35;;;2.17;;
28343;SDS011;15597;50.914;6.638;2023-05-07T08:43:15;5.13;;;2.30;;
28343;SDS011;15597;50.914;6.638;2023-05-07T08:45:43;5.00;;;2.40;;
28343;SDS011;15597;50.914;6.638;2023-05-07T08:48:14;5.63;;;2.20;;
28343;SDS011;15597;50.914;6.638;2023-05-07T08:50:42;5.30;;;2.20;;
28343;SDS011;15597;50.914;6.638;2023-05-07T08:53:09;4.40;;;2.33;;
28343;SDS011;15597;50.914;6.638;2023-05-07T08:55:35;5.13;;;2.30;;
28343;SDS011;15597;50.914;6.638;2023-05-07T08:58:01;4.72;;;2.42;;
28343;SDS011;15597;50.914;6.638;2023-05-07T09:00:27;4.43;;;2.25;;
28343;SDS011;15597;50.914;6.638;2023-05-07T09:02:54;4.90;;;2.35;;
28343;SDS011;15597;50.914;6.638;2023-05-07T09:05:22;4.07;;;2.17;;
28343;SDS011;15597;50.914;6.638;2023-05-07T09:07:47;5.85;;;2.25;;
28343;SDS011;15597;50.914;6.638;2023-05-07T09:10:14;5.55;;;2.47;;
28343;SDS011;15597;50.914;6.638;2023-05-07T09:15:15;4.90;;;2.15;;
28343;SDS011;15597;50.914;6.638;2023-05-07T09:17:42;5.65;;;1.85;;
28343;SDS011;15597;50.914;6.638;2023-05-07T09:20:08;5.53;;;2.10;;
28343;SDS011;15597;50.914;6.638;2023-05-07T09:22:38;4.32;;;2.10;;
28343;SDS011;15597;50.914;6.638;2023-05-07T09:25:07;4.10;;;2.00;;
28343;SDS011;15597;50.914;6.638;2023-05-07T09:27:35;3.70;;;1.55;;
28343;SDS011;15597;50.914;6.638;2023-05-07T09:30:03;8.02;;;2.30;;
28343;SDS011;15597;50.914;6.638;2023-05-07T09:32:32;4.28;;;1.98;;
28343;SDS011;15597;50.914;6.638;2023-05-07T09:35:01;4.43;;;1.98;;
28343;SDS011;15597;50.914;6.638;2023-05-07T09:37:30;3.85;;;2.03;;
28343;SDS011;15597;50.914;6.638;2023-05-07T09:39:57;5.70;;;2.28;;
28343;SDS011;15597;50.914;6.638;2023-05-07T09:42:25;4.28;;;1.83;;
28343;SDS011;15597;50.914;6.638;2023-05-07T09:44:59;4.93;;;2.03;;
28343;SDS011;15597;50.914;6.638;2023-05-07T09:47:30;4.50;;;2.05;;
28343;SDS011;15597;50.914;6.638;2023-05-07T09:49:58;5.80;;;1.80;;
28343;SDS011;15597;50.914;6.638;2023-05-07T09:52:28;4.07;;;1.73;;
28343;SDS011;15597;50.914;6.638;2023-05-07T09:55:01;4.78;;;1.65;;
28343;SDS011;15597;50.914;6.638;2023-05-07T09:57:29;4.15;;;1.67;;
28343;SDS011;15597;50.914;6.638;2023-05-07T10:00:01;5.45;;;1.70;;
28343;SDS011;15597;50.914;6.638;2023-05-07T10:02:46;3.53;;;1.63;;
28343;SDS011;15597;50.914;6.638;2023-05-07T10:05:19;3.53;;;1.70;;
28343;SDS011;15597;50.914;6.638;2023-05-07T10:07:47;3.35;;;1.60;;
28343;SDS011;15597;50.914;6.638;2023-05-07T10:10:14;6.15;;;1.85;;
28343;SDS011;15597;50.914;6.638;2023-05-07T10:12:46;4.32;;;2.05;;
28343;SDS011;15597;50.914;6.638;2023-05-07T10:15:18;4.00;;;1.73;;
28343;SDS011;15597;50.914;6.638;2023-05-07T10:17:48;3.80;;;1.73;;
28343;SDS011;15597;50.914;6.638;2023-05-07T10:20:15;3.42;;;1.80;;
28343;SDS011;15597;50.914;6.638;2023-05-07T10:22:44;5.32;;;2.13;;
28343;SDS011;15597;50.914;6.638;2023-05-07T10:25:18;4.30;;;1.70;;
28343;SDS011;15597;50.914;6.638;2023-05-07T10:27:48;4.88;;;1.60;;
28343;SDS011;15597;50.914;6.638;2023-05-07T10:33:05;3.92;;;1.80;;
28343;SDS011;15597;50.914;6.638;2023-05-07T10:35:37;5.38;;;1.98;;
28343;SDS011;15597;50.914;6.638;2023-05-07T10:38:07;4.53;;;1.80;;
28343;SDS011;15597;50.914;6.638;2023-05-07T10:40:35;4.15;;;1.70;;
28343;SDS011;15597;50.914;6.638;2023-05-07T10:43:02;4.47;;;1.50;;
28343;SDS011;15597;50.914;6.638;2023-05-07T10:45:39;3.95;;;1.60;;
28343;SDS011;15597;50.914;6.638;2023-05-07T10:48:12;3.72;;;1.80;;
28343;SDS011;15597;50.914;6.638;2023-05-07T10:50:41;6.57;;;1.95;;
28343;SDS011;15597;50.914;6.638;2023-05-07T10:53:27;3.90;;;1.75;;
28343;SDS011;15597;50.914;6.638;2023-05-07T10:58:52;5.18;;;2.17;;
28343;SDS011;15597;50.914;6.638;2023-05-07T11:01:50;4.10;;;2.00;;
28343;SDS011;15597;50.914;6.638;2023-05-07T11:04:28;6.32;;;1.90;;
28343;SDS011;15597;50.914;6.638;2023-05-07T11:10:01;4.70;;;1.65;;
28343;SDS011;15597;50.914;6.638;2023-05-07T11:12:52;4.40;;;1.80;;
28343;SDS011;15597;50.914;6.638;2023-05-07T11:15:37;4.22;;;1.52;;
28343;SDS011;15597;50.914;6.638;2023-05-07T11:18:13;3.53;;;1.60;;
28343;SDS011;15597;50.914;6.638;2023-05-07T11:26:17;6.35;;;1.98;;
28343;SDS011;15597;50.914;6.638;2023-05-07T11:28:44;3.20;;;1.80;;
28343;SDS011;15597;50.914;6.638;2023-05-07T11:31:10;5.13;;;1.75;;
28343;SDS011;15597;50.914;6.638;2023-05-07T11:33:37;3.17;;;1.58;;
28343;SDS011;15597;50.914;6.638;2023-05-07T11:36:07;6.38;;;1.90;;
28343;SDS011;15597;50.914;6.638;2023-05-07T11:38:38;3.67;;;1.85;;
28343;SDS011;15597;50.914;6.638;2023-05-07T11:41:04;3.92;;;1.60;;
28343;SDS011;15597;50.914;6.638;2023-05-07T11:43:31;3.15;;;1.70;;
28343;SDS011;15597;50.914;6.638;2023-05-07T11:46:05;3.72;;;1.70;;
28343;SDS011;15597;50.914;6.638;2023-05-07T11:48:34;4.32;;;1.70;;
28343;SDS011;15597;50.914;6.638;2023-05-07T11:51:01;4.82;;;1.85;;
28343;SDS011;15597;50.914;6.638;2023-05-07T11:53:35;4.43;;;1.80;;
28343;SDS011;15597;50.914;6.638;2023-05-07T11:56:08;3.30;;;1.70;;
28343;SDS011;15597;50.914;6.638;2023-05-07T11:58:35;5.72;;;1.85;;
28343;SDS011;15597;50.914;6.638;2023-05-07T12:01:01;3.72;;;1.70;;
28343;SDS011;15597;50.914;6.638;2023-05-07T12:03:27;5.13;;;1.73;;
28343;SDS011;15597;50.914;6.638;2023-05-07T12:05:53;3.70;;;1.80;;
28343;SDS011;15597;50.914;6.638;2023-05-07T12:08:19;4.47;;;1.67;;
28343;SDS011;15597;50.914;6.638;2023-05-07T12:10:48;4.45;;;1.80;;
28343;SDS011;15597;50.914;6.638;2023-05-07T12:13:18;3.05;;;1.60;;
28343;SDS011;15597;50.914;6.638;2023-05-07T12:15:44;3.33;;;1.60;;
28343;SDS011;15597;50.914;6.638;2023-05-07T12:18:13;4.22;;;1.90;;
28343;SDS011;15597;50.914;6.638;2023-05-07T12:20:39;4.43;;;2.13;;
28343;SDS011;15597;50.914;6.638;2023-05-07T12:23:05;4.68;;;2.00;;
28343;SDS011;15597;50.914;6.638;2023-05-07T12:25:40;4.18;;;1.88;;
28343;SDS011;15597;50.914;6.638;2023-05-07T12:28:13;4.93;;;2.05;;
28343;SDS011;15597;50.914;6.638;2023-05-07T12:30:43;4.95;;;1.90;;
28343;SDS011;15597;50.914;6.638;2023-05-07T12:33:16;4.10;;;1.63;;
28343;SDS011;15597;50.914;6.638;2023-05-07T12:35:47;6.43;;;1.92;;
28343;SDS011;15597;50.914;6.638;2023-05-07T12:38:13;4.38;;;2.00;;
28343;SDS011;15597;50.914;6.638;2023-05-07T12:40:41;5.43;;;2.10;;
28343;SDS011;15597;50.914;6.638;2023-05-07T12:43:23;4.55;;;1.80;;
28343;SDS011;15597;50.914;6.638;2023-05-07T12:45:50;3.78;;;1.80;;
28343;SDS011;15597;50.914;6.638;2023-05-07T12:48:22;3.30;;;1.80;;
28343;SDS011;15597;50.914;6.638;2023-05-07T12:50:51;6.88;;;1.77;;
28343;SDS011;15597;50.914;6.638;2023-05-07T12:53:19;3.63;;;1.85;;
28343;SDS011;15597;50.914;6.638;2023-05-07T12:55:47;4.22;;;1.63;;
28343;SDS011;15597;50.914;6.638;2023-05-07T12:58:17;6.82;;;1.95;;
28343;SDS011;15597;50.914;6.638;2023-05-07T13:00:45;6.20;;;2.15;;
28343;SDS011;15597;50.914;6.638;2023-05-07T13:03:20;6.22;;;1.98;;
28343;SDS011;15597;50.914;6.638;2023-05-07T13:05:47;8.52;;;2.30;;
28343;SDS011;15597;50.914;6.638;2023-05-07T13:08:22;7.45;;;2.13;;
28343;SDS011;15597;50.914;6.638;2023-05-07T13:10:58;5.75;;;2.20;;
28343;SDS011;15597;50.914;6.638;2023-05-07T13:13:29;5.47;;;2.25;;
28343;SDS011;15597;50.914;6.638;2023-05-07T13:15:55;3.90;;;1.83;;
28343;SDS011;15597;50.914;6.638;2023-05-07T13:18:21;8.15;;;2.83;;
28343;SDS011;15597;50.914;6.638;2023-05-07T13:20:46;5.60;;;2.30;;
28343;SDS011;15597;50.914;6.638;2023-05-07T13:23:12;4.97;;;2.40;;
28343;SDS011;15597;50.914;6.638;2023-05-07T13:25:37;5.18;;;2.35;;
28343;SDS011;15597;50.914;6.638;2023-05-07T13:28:03;5.70;;;2.22;;
28343;SDS011;15597;50.914;6.638;2023-05-07T13:30:29;7.47;;;2.33;;
28343;SDS011;15597;50.914;6.638;2023-05-07T13:32:55;5.40;;;2.40;;
28343;SDS011;15597;50.914;6.638;2023-05-07T13:35:21;4.80;;;2.15;;
28343;SDS011;15597;50.914;6.638;2023-05-07T13:37:48;6.38;;;1.85;;
28343;SDS011;15597;50.914;6.638;2023-05-07T13:40:15;4.70;;;2.00;;
28343;SDS011;15597;50.914;6.638;2023-05-07T13:42:41;5.20;;;2.40;;
28343;SDS011;15597;50.914;6.638;2023-05-07T13:45:06;4.00;;;1.70;;
28343;SDS011;15597;50.914;6.638;2023-05-07T13:47:33;5.40;;;1.70;;
28343;SDS011;15597;50.914;6.638;2023-05-07T13:49:58;6.97;;;1.30;;
28343;SDS011;15597;50.914;6.638;2023-05-07T13:52:24;7.78;;;1.83;;
28343;SDS011;15597;50.914;6.638;2023-05-07T13:54:50;6.22;;;1.25;;
28343;SDS011;15597;50.914;6.638;2023-05-07T13:57:18;5.88;;;1.55;;
28343;SDS011;15597;50.914;6.638;2023-05-07T13:59:43;8.90;;;1.85;;
28343;SDS011;15597;50.914;6.638;2023-05-07T14:02:09;7.55;;;1.75;;
28343;SDS011;15597;50.914;6.638;2023-05-07T14:04:35;10.75;;;2.50;;
28343;SDS011;15597;50.914;6.638;2023-05-07T14:07:00;10.73;;;1.73;;
28343;SDS011;15597;50.914;6.638;2023-05-07T14:09:26;4.93;;;1.10;;
28343;SDS011;15597;50.914;6.638;2023-05-07T14:11:52;6.80;;;1.15;;
28343;SDS011;15597;50.914;6.638;2023-05-07T14:14:17;4.55;;;1.50;;
28343;SDS011;15597;50.914;6.638;2023-05-07T14:16:44;3.60;;;1.33;;
28343;SDS011;15597;50.914;6.638;2023-05-07T14:19:10;3.10;;;1.17;;
28343;SDS011;15597;50.914;6.638;2023-05-07T14:21:36;4.75;;;1.60;;
28343;SDS011;15597;50.914;6.638;2023-05-07T14:24:02;5.82;;;1.55;;
28343;SDS011;15597;50.914;6.638;2023-05-07T14:26:28;4.68;;;1.58;;
28343;SDS011;15597;50.914;6.638;2023-05-07T14:28:54;6.57;;;1.80;;
28343;SDS011;15597;50.914;6.638;2023-05-07T14:31:22;3.95;;;1.40;;
28343;SDS011;15597;50.914;6.638;2023-05-07T14:33:48;4.40;;;1.60;;
28343;SDS011;15597;50.914;6.638;2023-05-07T14:36:15;3.50;;;1.40;;
28343;SDS011;15597;50.914;6.638;2023-05-07T14:38:40;3.70;;;1.52;;
28343;SDS011;15597;50.914;6.638;2023-05-07T14:41:06;3.63;;;1.50;;
28343;SDS011;15597;50.914;6.638;2023-05-07T14:43:32;4.75;;;1.60;;
28343;SDS011;15597;50.914;6.638;2023-05-07T14:45:57;4.93;;;1.85;;
28343;SDS011;15597;50.914;6.638;2023-05-07T14:48:23;4.50;;;1.90;;
28343;SDS011;15597;50.914;6.638;2023-05-07T14:50:49;5.60;;;1.95;;
28343;SDS011;15597;50.914;6.638;2023-05-07T14:53:15;3.58;;;1.70;;
28343;SDS011;15597;50.914;6.638;2023-05-07T14:55:41;8.57;;;2.17;;
28343;SDS011;15597;50.914;6.638;2023-05-07T14:58:06;4.10;;;1.60;;
28343;SDS011;15597;50.914;6.638;2023-05-07T15:00:33;4.72;;;1.90;;
28343;SDS011;15597;50.914;6.638;2023-05-07T15:03:01;9.27;;;2.10;;
28343;SDS011;15597;50.914;6.638;2023-05-07T15:05:31;5.28;;;1.90;;
28343;SDS011;15597;50.914;6.638;2023-05-07T15:07:58;4.60;;;2.05;;